Startpagina
METAR-TAF:

METAR-TAF

Vliegvelden :

Aeropuerto de Palma de Mallorca

Palma de Mallorca, Spanje

breedte: 39-33N, lengte: 002-44E, hoogte: 4 m

Actueel weer

Dit bericht is 23 minuten geleden gemaakt, om 02:00 UTC
Wind 2 kt uit het noordoosten
Temperatuur 3°C
Vochtigheid 100%
Druk 1031 hPa
Zicht 10 km of meer
Weinig wolken op 2000 ft

METAR: LEPA 220200Z 05002KT 9999 FEW020 03/03 Q1031 NOSIG

Tijdstip: 03:23 (02:23 UTC)

Verwachting

Dit bericht is 3 uur en het 23 minuten geleden gemaakt, om 23:00 UTC
Verwachting geldig van 22 om 00 UTC tot 22 om 24 UTC
Wind 3 kt uit variabele richting
Zicht 10 km of meer
Weinig wolken op 2500 ft
Kans 30% :
Tijdelijke
van 22 om 00 UTC tot 22 om 07 UTC
Zicht: 4000 m
nevel
Wijzigt naar
van 22 om 10 UTC tot 22 om 12 UTC
Wind 10 kt uit het westnoordwesten
Wijzigt naar
van 22 om 16 UTC tot 22 om 18 UTC
Wind 4 kt uit variabele richting

TAF: LEPA 212300Z 2200/2224 VRB03KT 9999 FEW025 TX18/2212Z TN03/2206Z PROB30 TEMPO 2200/2207 4000 BR BECMG 2210/2212 29010KT BECMG 2216/2218 VRB04KT

Waarnemingen en weersverwachtingen van meer dan 4000 vliegvelden (METAR en TAF).

De beschikbare stations zijn de gele en rode punten op de kaart.

Ga met uw muis naar het station om de naam te zien.

Klik dan om waarnemingen en weersverwachtingen te zien.

kaart wijzigen: klik op de groene knoppen met een zwart kruis om in te zoomen, op de groene knop met een streepje om uit te zoomen of op de groene pijlen voor aangrenzende kaarten.


METAR-TAF: